This is the latest recevied weather packets stored in our database for station/object IT9CYW-10. If no packets are shown the sender has not sent any weather packets the latest 10 day(s).
| Time | Temp. | Humidity | Pressure | Rain* | Wind** | Luminosity | Snow |
|---|---|---|---|---|---|---|---|
| 1777873392 | 15° C | 74% | 1000.7 hPa | - | - | 171 W/m² | - |
| 1777871595 | 11.67° C | 79% | 1000.7 hPa | - | - | 69 W/m² | - |
| 1777870695 | 11.11° C | 80% | 1000.7 hPa | - | - | 53 W/m² | - |
| 1777869795 | 10.56° C | 81% | 1000.5 hPa | - | - | 29 W/m² | - |
| 1777868895 | 10.56° C | 79% | 1000.5 hPa | - | - | 13 W/m² | - |
| 1777867995 | 10.56° C | 78% | 1000.2 hPa | - | - | 4 W/m² | - |
| 1777867095 | 10° C | 80% | 1000.2 hPa | - | - | 0 W/m² | - |
| 1777866195 | 10.56° C | 79% | 1000.2 hPa | - | - | 0 W/m² | - |
| 1777865295 | 11.11° C | 76% | 1000.2 hPa | - | - | 0 W/m² | - |
| 1777864395 | 11.11° C | 77% | 1000.2 hPa | - | - | 0 W/m² | - |
| 1777863494 | 11.11° C | 77% | 1000.2 hPa | - | - | 0 W/m² | - |
| 1777862594 | 10.56° C | 78% | 1000.4 hPa | - | - | 0 W/m² | - |
| 1777861694 | 11.11° C | 76% | 1000.2 hPa | - | - | 0 W/m² | - |
| 1777860794 | 11.11° C | 76% | 1000.5 hPa | - | - | 0 W/m² | - |
| 1777859894 | 11.67° C | 75% | 1000.5 hPa | - | - | 0 W/m² | - |
| 1777858994 | 11.67° C | 75% | 1000.2 hPa | - | - | 0 W/m² | - |
| 1777858094 | 11.67° C | 76% | 1000.4 hPa | - | - | 0 W/m² | - |
| 1777857194 | 11.11° C | 76% | 1000.2 hPa | - | - | 0 W/m² | - |
| 1777856294 | 11.67° C | 76% | 1000.4 hPa | - | - | 0 W/m² | - |
| 1777855394 | 11.11° C | 78% | 1000.4 hPa | - | - | 0 W/m² | - |
| 1777854494 | 11.11° C | 78% | 1000.4 hPa | - | - | 0 W/m² | - |
| 1777853593 | 11.11° C | 79% | 1000.7 hPa | - | - | 0 W/m² | - |
| 1777852693 | 11.11° C | 78% | 1000.7 hPa | - | - | 0 W/m² | - |
| 1777851793 | 11.67° C | 75% | 1000.9 hPa | - | - | 0 W/m² | - |
| 1777849997 | 11.67° C | 75% | 1000.7 hPa | - | - | 0 W/m² | - |
* Rain since midnight (hover to see other rain measurements)
** Current wind speed in m/s (hover to see current wind gust speed)